Time;durP1;ratioP1;P1;durP2;ratioP2;P2;SDS_P1;SDS_P2;PMS_P1;PMS_P2;Temp;Humidity;BMP_temperature;BMP_pressure;BME280_temperature;BME280_humidity;BME280_pressure;Samples;Min_cycle;Max_cycle;Signal;HPM_P1;HPM_P2
2023/10/21 00:00:51;;;;;;;55.90;1.90;;;;;;;;;;5051958;28;20452;-70
2023/10/21 00:03:18;;;;;;;55.70;2.60;;;;;;;;;;5052277;28;20812;-70
2023/10/21 00:05:45;;;;;;;56.07;2.00;;;;;;;;;;5052090;28;20490;-70
2023/10/21 00:08:12;;;;;;;56.10;2.40;;;;;;;;;;5052228;28;20477;-70
2023/10/21 00:10:39;;;;;;;55.57;1.93;;;;;;;;;;5051999;28;20468;-70
2023/10/21 00:13:08;;;;;;;55.67;1.80;;;;;;;;;;5052099;28;20453;-70
2023/10/21 00:15:35;;;;;;;55.90;2.03;;;;;;;;;;5052063;28;20449;-70
2023/10/21 00:18:02;;;;;;;55.77;1.93;;;;;;;;;;5051800;28;20971;-70
2023/10/21 00:20:28;;;;;;;55.57;1.90;;;;;;;;;;5051924;28;20468;-70
2023/10/21 00:22:55;;;;;;;55.90;2.00;;;;;;;;;;5051336;28;20455;-70
2023/10/21 00:25:23;;;;;;;55.77;1.90;;;;;;;;;;5051714;28;20538;-70
2023/10/21 00:27:50;;;;;;;55.70;1.80;;;;;;;;;;5051665;28;20993;-70
2023/10/21 00:30:19;;;;;;;55.70;2.20;;;;;;;;;;5051700;28;20467;-70
2023/10/21 00:32:46;;;;;;;55.90;1.77;;;;;;;;;;5051992;28;20526;-70
2023/10/21 00:35:13;;;;;;;55.80;1.83;;;;;;;;;;5051787;28;20440;-70
2023/10/21 00:37:40;;;;;;;55.60;2.00;;;;;;;;;;5051796;28;20458;-70
2023/10/21 00:40:08;;;;;;;55.90;2.20;;;;;;;;;;5051482;28;20590;-70
2023/10/21 00:42:35;;;;;;;55.90;1.97;;;;;;;;;;5051471;28;20479;-70
2023/10/21 00:45:03;;;;;;;55.93;1.87;;;;;;;;;;5051283;28;20495;-70
2023/10/21 00:47:32;;;;;;;55.90;1.90;;;;;;;;;;5051641;28;20462;-71
2023/10/21 00:50:00;;;;;;;55.60;1.97;;;;;;;;;;5051423;28;20985;-70
2023/10/21 00:52:28;;;;;;;55.37;1.90;;;;;;;;;;5051428;28;20450;-70
2023/10/21 00:54:58;;;;;;;55.73;2.00;;;;;;;;;;5051027;28;20455;-70
2023/10/21 00:57:26;;;;;;;55.47;1.80;;;;;;;;;;5051359;28;20454;-70
2023/10/21 00:59:53;;;;;;;55.87;2.00;;;;;;;;;;5050844;28;20480;-70
2023/10/21 01:02:20;;;;;;;55.77;2.07;;;;;;;;;;5051093;28;20560;-70
2023/10/21 01:04:49;;;;;;;55.43;1.80;;;;;;;;;;5051047;28;20453;-70
2023/10/21 01:07:16;;;;;;;55.50;2.33;;;;;;;;;;5051088;28;20948;-70
2023/10/21 01:09:43;;;;;;;55.33;1.90;;;;;;;;;;5051019;28;20477;-70
2023/10/21 01:12:10;;;;;;;55.80;1.70;;;;;;;;;;5051008;28;21018;-70
2023/10/21 01:14:38;;;;;;;55.87;1.80;;;;;;;;;;5051122;28;20452;-70
2023/10/21 01:17:05;;;;;;;55.87;1.90;;;;;;;;;;5051116;28;20451;-70
2023/10/21 01:19:32;;;;;;;55.73;2.23;;;;;;;;;;5050993;28;20471;-70
2023/10/21 01:22:01;;;;;;;55.57;2.10;;;;;;;;;;5051353;28;20440;-70
2023/10/21 01:24:29;;;;;;;55.70;2.03;;;;;;;;;;5050793;28;20526;-70
2023/10/21 01:26:57;;;;;;;55.70;1.80;;;;;;;;;;5051097;28;20495;-70
2023/10/21 01:29:24;;;;;;;55.67;1.87;;;;;;;;;;5050756;28;20970;-70
2023/10/21 01:31:51;;;;;;;55.70;1.90;;;;;;;;;;5050954;28;20477;-70
2023/10/21 01:34:18;;;;;;;55.80;2.20;;;;;;;;;;5049801;28;20448;-70
2023/10/21 01:36:45;;;;;;;55.90;1.90;;;;;;;;;;5050462;28;20448;-70
2023/10/21 01:39:12;;;;;;;55.80;1.87;;;;;;;;;;5050763;28;20466;-70
2023/10/21 01:41:41;;;;;;;55.80;1.70;;;;;;;;;;5050003;28;20506;-70
2023/10/21 01:44:08;;;;;;;55.73;1.90;;;;;;;;;;5050465;28;20451;-70
2023/10/21 01:46:37;;;;;;;55.77;2.00;;;;;;;;;;5050448;28;20488;-70
2023/10/21 01:49:04;;;;;;;55.77;1.83;;;;;;;;;;5049732;28;20524;-70
2023/10/21 01:51:31;;;;;;;55.50;1.90;;;;;;;;;;5048376;28;20452;-70
2023/10/21 01:53:58;;;;;;;55.73;1.70;;;;;;;;;;5050473;28;21043;-70
2023/10/21 01:59:30;;;;;;;56.00;2.20;;;;;;;;;;5042793;28;20935;-70
2023/10/21 02:01:57;;;;;;;55.87;1.83;;;;;;;;;;5050251;28;20460;-70
2023/10/21 02:04:24;;;;;;;55.60;1.87;;;;;;;;;;5050613;28;20477;-70
2023/10/21 02:06:51;;;;;;;55.97;2.00;;;;;;;;;;5050044;28;20490;-70
2023/10/21 02:09:19;;;;;;;56.07;2.13;;;;;;;;;;5050375;28;20456;-70
2023/10/21 02:11:47;;;;;;;55.90;1.90;;;;;;;;;;5050552;28;20531;-70
2023/10/21 02:14:14;;;;;;;55.97;1.97;;;;;;;;;;5050268;28;20456;-70
2023/10/21 02:16:42;;;;;;;55.77;1.90;;;;;;;;;;5050419;28;20819;-70
2023/10/21 02:19:10;;;;;;;55.87;2.00;;;;;;;;;;5050526;28;20490;-71
2023/10/21 02:21:37;;;;;;;55.70;1.80;;;;;;;;;;5050475;28;20454;-70
2023/10/21 02:24:04;;;;;;;55.77;1.90;;;;;;;;;;5050168;28;20461;-70
2023/10/21 02:26:31;;;;;;;55.90;1.90;;;;;;;;;;5050188;28;20490;-70
2023/10/21 02:28:58;;;;;;;55.90;2.10;;;;;;;;;;5050574;28;20474;-70
2023/10/21 02:31:25;;;;;;;55.77;2.10;;;;;;;;;;5050363;28;20443;-70
2023/10/21 02:33:54;;;;;;;55.70;2.00;;;;;;;;;;5050201;28;20461;-70
2023/10/21 02:36:21;;;;;;;55.50;1.87;;;;;;;;;;5050373;28;20447;-70
2023/10/21 02:38:48;;;;;;;55.60;2.00;;;;;;;;;;5050251;28;20474;-70
2023/10/21 02:41:15;;;;;;;55.47;2.00;;;;;;;;;;5050111;28;20448;-70
2023/10/21 02:43:42;;;;;;;55.63;2.03;;;;;;;;;;5049969;28;20445;-70
2023/10/21 02:46:10;;;;;;;55.67;2.03;;;;;;;;;;5051511;28;20492;-70
2023/10/21 02:48:37;;;;;;;55.47;2.07;;;;;;;;;;5053724;28;20812;-70
2023/10/21 02:51:11;;;;;;;55.77;1.83;;;;;;;;;;5053648;28;20506;-70
2023/10/21 02:53:38;;;;;;;55.77;2.00;;;;;;;;;;5053480;28;20463;-70
2023/10/21 02:56:06;;;;;;;55.63;2.10;;;;;;;;;;5053412;28;20472;-70
2023/10/21 02:58:34;;;;;;;55.90;1.80;;;;;;;;;;5053425;28;20940;-71
2023/10/21 03:01:02;;;;;;;55.87;1.90;;;;;;;;;;5053308;28;20456;-70
2023/10/21 03:03:29;;;;;;;55.90;1.90;;;;;;;;;;5053608;28;20532;-70
2023/10/21 03:05:56;;;;;;;55.57;2.07;;;;;;;;;;5053272;28;20489;-70
2023/10/21 03:08:25;;;;;;;55.67;1.80;;;;;;;;;;5045323;28;20448;-70
2023/10/21 03:10:52;;;;;;;56.17;1.80;;;;;;;;;;5053187;28;20454;-70
2023/10/21 03:13:19;;;;;;;55.80;1.67;;;;;;;;;;5052824;28;20953;-71
2023/10/21 03:15:46;;;;;;;55.87;1.70;;;;;;;;;;5053365;28;20451;-70
2023/10/21 03:18:13;;;;;;;55.90;1.90;;;;;;;;;;5053129;28;20452;-70
2023/10/21 03:20:40;;;;;;;55.77;1.87;;;;;;;;;;5052974;28;20966;-71
2023/10/21 03:23:07;;;;;;;55.93;1.90;;;;;;;;;;5052903;28;20466;-71
2023/10/21 03:25:36;;;;;;;55.63;1.90;;;;;;;;;;5053250;28;20775;-71
2023/10/21 03:28:03;;;;;;;55.87;2.00;;;;;;;;;;5053281;28;20451;-71
2023/10/21 03:30:30;;;;;;;55.47;1.83;;;;;;;;;;5052964;28;20522;-70
2023/10/21 03:32:57;;;;;;;55.53;1.77;;;;;;;;;;5052789;28;20451;-70
2023/10/21 03:35:24;;;;;;;55.43;1.90;;;;;;;;;;5052987;28;20462;-70
2023/10/21 03:37:51;;;;;;;55.83;1.90;;;;;;;;;;5052746;28;20444;-70
2023/10/21 03:40:19;;;;;;;55.97;1.93;;;;;;;;;;5052640;28;20493;-70
2023/10/21 03:42:47;;;;;;;55.67;1.90;;;;;;;;;;5052506;28;20479;-70
2023/10/21 03:45:14;;;;;;;55.60;1.70;;;;;;;;;;5052194;28;20450;-70
2023/10/21 03:47:41;;;;;;;56.00;1.90;;;;;;;;;;5052664;28;20495;-70
2023/10/21 03:50:09;;;;;;;55.90;2.20;;;;;;;;;;5051772;28;20573;-70
2023/10/21 03:52:36;;;;;;;55.80;2.00;;;;;;;;;;5052385;28;20451;-70
2023/10/21 03:55:04;;;;;;;56.00;2.10;;;;;;;;;;5052243;28;20451;-70
2023/10/21 03:57:31;;;;;;;55.83;1.93;;;;;;;;;;5051789;28;20476;-70
2023/10/21 04:00:00;;;;;;;55.73;1.90;;;;;;;;;;5052172;28;20473;-70
2023/10/21 04:02:28;;;;;;;55.57;2.03;;;;;;;;;;5048671;28;20551;-70
2023/10/21 04:04:55;;;;;;;55.97;1.90;;;;;;;;;;5052054;28;20453;-70
2023/10/21 04:07:23;;;;;;;55.57;2.10;;;;;;;;;;5052278;28;20486;-70
2023/10/21 04:09:50;;;;;;;55.80;1.83;;;;;;;;;;5052195;28;20483;-70
2023/10/21 04:12:17;;;;;;;55.70;1.80;;;;;;;;;;5052165;28;20450;-70
2023/10/21 04:14:45;;;;;;;55.73;1.97;;;;;;;;;;5051989;28;20534;-70
2023/10/21 04:17:13;;;;;;;55.27;1.90;;;;;;;;;;5052433;28;20447;-70
2023/10/21 04:19:40;;;;;;;55.90;1.90;;;;;;;;;;5051829;28;20832;-70
2023/10/21 04:22:08;;;;;;;55.80;1.90;;;;;;;;;;5052002;28;20459;-70
2023/10/21 04:24:35;;;;;;;56.00;2.10;;;;;;;;;;5051656;28;20551;-70
2023/10/21 04:27:02;;;;;;;55.97;1.87;;;;;;;;;;5051749;28;20498;-70
2023/10/21 04:29:29;;;;;;;55.80;1.83;;;;;;;;;;5051534;28;20478;-70
2023/10/21 04:31:56;;;;;;;56.20;3.13;;;;;;;;;;5050954;28;20462;-70
2023/10/21 04:34:25;;;;;;;55.70;1.90;;;;;;;;;;5050828;28;20960;-71
2023/10/21 04:36:52;;;;;;;55.53;1.77;;;;;;;;;;5051567;28;20959;-71
2023/10/21 04:39:19;;;;;;;55.90;1.80;;;;;;;;;;5051390;28;20472;-71
2023/10/21 04:41:49;;;;;;;55.60;1.90;;;;;;;;;;5051579;28;20827;-71
2023/10/21 04:44:16;;;;;;;55.90;1.97;;;;;;;;;;5051385;28;20447;-71
2023/10/21 04:46:43;;;;;;;55.77;2.00;;;;;;;;;;5051280;28;20491;-71
2023/10/21 04:49:10;;;;;;;55.67;1.90;;;;;;;;;;5051321;28;21027;-71
2023/10/21 04:51:39;;;;;;;56.00;1.93;;;;;;;;;;5051441;28;20455;-71
2023/10/21 04:54:06;;;;;;;55.80;2.00;;;;;;;;;;5051130;28;20448;-71
2023/10/21 04:56:33;;;;;;;55.77;1.87;;;;;;;;;;5051333;28;20444;-71
2023/10/21 04:59:00;;;;;;;55.90;1.80;;;;;;;;;;5050848;28;20805;-71
2023/10/21 05:01:27;;;;;;;55.70;1.80;;;;;;;;;;5050776;28;20474;-71
2023/10/21 05:03:54;;;;;;;55.80;1.83;;;;;;;;;;5051124;28;20749;-71
2023/10/21 05:06:21;;;;;;;55.73;1.90;;;;;;;;;;5050968;28;20497;-71
2023/10/21 05:08:50;;;;;;;56.00;1.97;;;;;;;;;;5050528;28;20475;-71
2023/10/21 05:11:17;;;;;;;55.87;1.90;;;;;;;;;;5050648;28;20962;-71
2023/10/21 05:13:44;;;;;;;55.87;2.03;;;;;;;;;;5051011;28;20455;-71
2023/10/21 05:16:11;;;;;;;55.90;1.80;;;;;;;;;;5051077;28;20457;-72
2023/10/21 05:18:39;;;;;;;55.97;2.00;;;;;;;;;;5051146;28;20446;-72
2023/10/21 05:21:08;;;;;;;55.77;2.10;;;;;;;;;;5050851;28;20454;-72
2023/10/21 05:23:35;;;;;;;56.40;2.17;;;;;;;;;;5050902;28;20532;-72
2023/10/21 05:26:03;;;;;;;56.10;2.27;;;;;;;;;;5050856;28;20447;-72
2023/10/21 05:28:31;;;;;;;55.90;1.87;;;;;;;;;;5042846;28;20491;-72
2023/10/21 05:30:58;;;;;;;55.77;2.00;;;;;;;;;;5050985;28;20455;-72
2023/10/21 05:33:26;;;;;;;55.73;1.80;;;;;;;;;;5050749;28;20504;-72
2023/10/21 05:35:54;;;;;;;55.73;1.90;;;;;;;;;;5050882;28;20539;-72
2023/10/21 05:38:21;;;;;;;56.27;2.50;;;;;;;;;;5050094;28;20509;-72
2023/10/21 05:40:49;;;;;;;55.67;1.80;;;;;;;;;;5050276;28;20476;-72
2023/10/21 05:43:17;;;;;;;55.67;1.90;;;;;;;;;;5050339;28;20935;-72
2023/10/21 05:45:45;;;;;;;55.80;1.93;;;;;;;;;;5050190;28;20458;-72
2023/10/21 05:48:12;;;;;;;55.80;2.10;;;;;;;;;;5050039;28;20494;-72
2023/10/21 05:50:39;;;;;;;55.77;1.90;;;;;;;;;;5050084;28;20474;-72
2023/10/21 05:53:06;;;;;;;55.80;1.80;;;;;;;;;;5050249;28;20973;-72
2023/10/21 05:55:33;;;;;;;55.77;1.80;;;;;;;;;;5050438;28;20937;-72
2023/10/21 05:58:00;;;;;;;55.67;1.80;;;;;;;;;;5050956;28;20440;-72
2023/10/21 06:00:29;;;;;;;55.90;2.00;;;;;;;;;;5050333;28;20464;-72
2023/10/21 06:02:56;;;;;;;55.87;1.80;;;;;;;;;;5050464;28;20513;-72
2023/10/21 06:05:23;;;;;;;55.80;1.80;;;;;;;;;;5050542;28;20451;-72
2023/10/21 06:07:50;;;;;;;55.90;1.80;;;;;;;;;;5050414;28;20487;-72
2023/10/21 06:10:17;;;;;;;55.87;1.80;;;;;;;;;;5050215;28;21020;-72
2023/10/21 06:12:44;;;;;;;55.67;1.80;;;;;;;;;;5050751;28;20498;-72
2023/10/21 06:15:12;;;;;;;56.07;1.80;;;;;;;;;;5050502;28;20879;-72
2023/10/21 06:17:40;;;;;;;55.70;1.70;;;;;;;;;;5050766;28;20871;-72
2023/10/21 06:20:08;;;;;;;55.90;1.90;;;;;;;;;;5050811;28;20485;-72
2023/10/21 06:22:35;;;;;;;55.90;1.80;;;;;;;;;;5054280;28;20448;-72
2023/10/21 06:25:02;;;;;;;55.80;1.90;;;;;;;;;;5054420;28;20816;-72
2023/10/21 06:27:29;;;;;;;55.80;1.80;;;;;;;;;;5054119;28;20488;-71
2023/10/21 06:29:56;;;;;;;55.77;1.77;;;;;;;;;;5054196;28;20472;-71
2023/10/21 06:32:24;;;;;;;55.73;1.60;;;;;;;;;;5053937;28;20453;-72
2023/10/21 06:34:52;;;;;;;57.47;2.10;;;;;;;;;;5053795;28;20487;-72
2023/10/21 06:37:19;;;;;;;55.60;1.70;;;;;;;;;;5054190;28;20459;-71
2023/10/21 06:39:47;;;;;;;55.57;1.80;;;;;;;;;;5053676;28;20468;-72
2023/10/21 06:42:15;;;;;;;55.67;1.80;;;;;;;;;;5053970;28;20454;-72
2023/10/21 06:44:42;;;;;;;56.23;1.90;;;;;;;;;;5053827;28;20513;-72
2023/10/21 06:47:09;;;;;;;55.57;1.80;;;;;;;;;;5053715;28;20485;-72
2023/10/21 06:49:36;;;;;;;55.70;2.27;;;;;;;;;;5053555;28;21037;-72
2023/10/21 06:52:05;;;;;;;55.23;2.10;;;;;;;;;;5053650;28;20449;-72
2023/10/21 06:54:32;;;;;;;55.80;1.87;;;;;;;;;;5053472;28;20636;-72
2023/10/21 06:56:59;;;;;;;55.67;1.90;;;;;;;;;;5053885;28;20443;-72
2023/10/21 06:59:26;;;;;;;55.80;1.83;;;;;;;;;;5053675;28;20470;-72
2023/10/21 07:01:54;;;;;;;55.67;1.87;;;;;;;;;;5053597;28;20459;-72
2023/10/21 07:04:21;;;;;;;56.00;2.10;;;;;;;;;;5053763;28;20540;-72
2023/10/21 07:06:48;;;;;;;55.97;1.90;;;;;;;;;;5054393;28;20452;-72
2023/10/21 07:09:17;;;;;;;55.70;1.73;;;;;;;;;;5053844;28;21014;-72
2023/10/21 07:11:44;;;;;;;55.80;1.90;;;;;;;;;;5053746;28;20451;-72
2023/10/21 07:14:12;;;;;;;55.70;1.93;;;;;;;;;;5054298;28;20461;-71
2023/10/21 07:16:40;;;;;;;55.83;1.80;;;;;;;;;;5054091;28;20518;-72
2023/10/21 07:19:07;;;;;;;55.70;1.77;;;;;;;;;;5053521;28;20474;-71
2023/10/21 07:21:35;;;;;;;55.67;1.80;;;;;;;;;;5053258;28;20502;-72
2023/10/21 07:24:02;;;;;;;55.90;1.80;;;;;;;;;;5053067;28;20445;-72
2023/10/21 07:26:30;;;;;;;55.57;1.70;;;;;;;;;;5053051;28;20539;-72
2023/10/21 07:28:58;;;;;;;55.87;1.70;;;;;;;;;;5052994;28;20517;-72
2023/10/21 07:31:25;;;;;;;55.80;1.80;;;;;;;;;;5052874;28;20826;-72
2023/10/21 07:33:52;;;;;;;55.80;1.87;;;;;;;;;;5052359;28;20451;-73
2023/10/21 07:36:19;;;;;;;55.70;1.80;;;;;;;;;;5052967;28;20743;-72
2023/10/21 07:38:47;;;;;;;55.77;1.70;;;;;;;;;;5052825;28;20983;-72
2023/10/21 07:41:16;;;;;;;55.67;1.90;;;;;;;;;;5052771;28;20916;-72
2023/10/21 07:43:44;;;;;;;55.90;2.00;;;;;;;;;;5052556;28;20454;-72
2023/10/21 07:46:11;;;;;;;56.10;2.00;;;;;;;;;;5052924;28;20444;-72
2023/10/21 07:48:39;;;;;;;55.80;1.70;;;;;;;;;;5052758;28;20484;-72
2023/10/21 07:51:06;;;;;;;55.60;1.70;;;;;;;;;;5052624;28;20457;-70
2023/10/21 07:53:34;;;;;;;55.23;1.80;;;;;;;;;;5052166;28;20449;-69
2023/10/21 07:56:01;;;;;;;55.67;1.80;;;;;;;;;;5050064;28;20470;-70
2023/10/21 07:58:29;;;;;;;55.60;1.90;;;;;;;;;;5051707;28;20447;-72
2023/10/21 08:00:57;;;;;;;55.70;1.70;;;;;;;;;;5051566;28;20928;-72
2023/10/21 08:03:24;;;;;;;55.77;1.90;;;;;;;;;;5051818;28;20459;-72
2023/10/21 08:05:51;;;;;;;55.80;1.90;;;;;;;;;;5051950;28;20449;-71
2023/10/21 08:08:18;;;;;;;55.80;1.80;;;;;;;;;;5051930;28;20964;-71
2023/10/21 08:10:45;;;;;;;55.77;2.00;;;;;;;;;;5051061;28;20472;-70
2023/10/21 08:13:12;;;;;;;55.53;1.80;;;;;;;;;;5052129;28;20448;-70
2023/10/21 08:15:39;;;;;;;55.53;1.80;;;;;;;;;;5052317;28;20447;-70
2023/10/21 08:18:08;;;;;;;55.77;2.07;;;;;;;;;;5052262;28;20454;-71
2023/10/21 08:20:35;;;;;;;55.90;1.80;;;;;;;;;;5051833;28;20464;-70
2023/10/21 08:23:04;;;;;;;55.87;1.87;;;;;;;;;;5051802;28;20565;-71
2023/10/21 08:25:31;;;;;;;56.00;1.87;;;;;;;;;;5051545;28;20458;-71
2023/10/21 08:27:58;;;;;;;56.00;1.83;;;;;;;;;;5051965;28;20488;-71
2023/10/21 08:30:26;;;;;;;55.87;2.00;;;;;;;;;;5050702;28;20476;-71
2023/10/21 08:32:53;;;;;;;55.80;1.97;;;;;;;;;;5046717;28;20920;-71
2023/10/21 08:35:23;;;;;;;55.97;2.00;;;;;;;;;;5044421;28;20463;-71
2023/10/21 08:37:50;;;;;;;55.97;2.10;;;;;;;;;;5051713;28;20451;-71
2023/10/21 08:40:17;;;;;;;55.80;1.87;;;;;;;;;;5051963;28;20489;-72
2023/10/21 08:42:44;;;;;;;55.37;1.97;;;;;;;;;;5051458;28;20448;-71
2023/10/21 08:45:11;;;;;;;56.00;2.20;;;;;;;;;;5051395;28;20457;-71
2023/10/21 08:47:40;;;;;;;55.60;1.90;;;;;;;;;;5051542;28;20488;-72
2023/10/21 08:50:08;;;;;;;55.80;2.10;;;;;;;;;;5051332;28;20941;-72
2023/10/21 08:52:36;;;;;;;55.80;1.87;;;;;;;;;;5051574;28;20466;-72
2023/10/21 08:55:05;;;;;;;55.57;2.00;;;;;;;;;;5051316;28;20458;-71
2023/10/21 08:57:32;;;;;;;55.67;1.90;;;;;;;;;;5051635;28;20574;-72
2023/10/21 09:00:00;;;;;;;55.53;1.90;;;;;;;;;;5051520;28;20466;-72
2023/10/21 09:02:27;;;;;;;56.67;2.00;;;;;;;;;;5051308;28;20455;-72
2023/10/21 09:04:54;;;;;;;55.87;1.77;;;;;;;;;;5051312;28;20466;-71
2023/10/21 09:07:22;;;;;;;55.60;1.77;;;;;;;;;;5051494;28;20479;-72
2023/10/21 09:09:51;;;;;;;55.67;1.93;;;;;;;;;;5051348;28;20513;-72
2023/10/21 09:12:18;;;;;;;55.80;1.90;;;;;;;;;;5051301;28;20462;-71
2023/10/21 09:14:52;;;;;;;55.67;1.80;;;;;;;;;;5051395;28;20854;-69
2023/10/21 09:17:19;;;;;;;55.67;1.80;;;;;;;;;;5050761;28;20675;-70
2023/10/21 09:19:51;;;;;;;55.57;1.80;;;;;;;;;;5039921;28;20481;-70
2023/10/21 09:22:22;;;;;;;55.60;2.00;;;;;;;;;;5050220;28;20454;-70
2023/10/21 09:24:51;;;;;;;55.90;2.10;;;;;;;;;;5051146;28;20447;-70
2023/10/21 09:27:18;;;;;;;55.80;2.00;;;;;;;;;;5051059;28;20447;-70
2023/10/21 09:29:46;;;;;;;55.77;1.80;;;;;;;;;;5050773;28;20484;-71
2023/10/21 09:32:13;;;;;;;55.87;1.77;;;;;;;;;;5047934;28;20502;-71
2023/10/21 09:34:41;;;;;;;55.90;1.77;;;;;;;;;;5050897;28;20444;-71
2023/10/21 09:37:08;;;;;;;55.97;1.97;;;;;;;;;;5045404;28;20895;-71
2023/10/21 09:39:37;;;;;;;55.70;1.80;;;;;;;;;;5047891;28;20975;-71
2023/10/21 09:42:06;;;;;;;55.73;1.87;;;;;;;;;;5050777;28;20506;-71
2023/10/21 09:44:34;;;;;;;55.93;2.00;;;;;;;;;;5050238;28;21022;-71
2023/10/21 09:47:04;;;;;;;55.87;2.00;;;;;;;;;;5051046;28;20824;-71
2023/10/21 09:49:35;;;;;;;56.03;2.10;;;;;;;;;;5050143;28;20870;-71
2023/10/21 09:52:05;;;;;;;56.03;2.20;;;;;;;;;;5050793;28;20804;-71
2023/10/21 09:54:34;;;;;;;55.90;2.00;;;;;;;;;;5050849;28;20601;-71
2023/10/21 09:57:01;;;;;;;55.97;2.00;;;;;;;;;;5053900;28;20952;-71
2023/10/21 09:59:31;;;;;;;55.90;2.20;;;;;;;;;;5052594;28;20565;-70
2023/10/21 10:01:59;;;;;;;55.93;1.83;;;;;;;;;;5053593;28;20465;-70
2023/10/21 10:04:27;;;;;;;55.80;2.10;;;;;;;;;;5054366;28;20447;-71
2023/10/21 10:06:58;;;;;;;56.93;3.00;;;;;;;;;;5054722;28;20982;-71
2023/10/21 10:09:26;;;;;;;56.00;2.23;;;;;;;;;;5054192;28;20499;-71
2023/10/21 10:11:54;;;;;;;55.90;1.83;;;;;;;;;;5052581;28;20821;-71
2023/10/21 10:14:21;;;;;;;55.97;1.87;;;;;;;;;;5054490;28;20824;-71
2023/10/21 10:16:49;;;;;;;55.67;1.90;;;;;;;;;;5047164;28;20467;-70
2023/10/21 10:19:37;;;;;;;56.00;2.10;;;;;;;;;;5054273;28;20476;-70
2023/10/21 10:22:17;;;;;;;56.00;2.10;;;;;;;;;;5048946;28;20942;-71
2023/10/21 10:24:51;;;;;;;56.07;1.87;;;;;;;;;;5054482;28;20454;-69
2023/10/21 10:27:18;;;;;;;55.90;2.10;;;;;;;;;;5050308;28;20546;-70
2023/10/21 10:29:46;;;;;;;55.97;1.90;;;;;;;;;;5052345;28;20515;-69
2023/10/21 10:32:15;;;;;;;55.77;2.07;;;;;;;;;;5054213;28;20462;-70
2023/10/21 10:34:53;;;;;;;55.83;1.70;;;;;;;;;;5053612;28;20963;-70
2023/10/21 10:37:31;;;;;;;56.00;2.13;;;;;;;;;;5051653;28;20460;-70
2023/10/21 10:39:58;;;;;;;56.03;2.20;;;;;;;;;;5053724;28;20562;-69
2023/10/21 10:42:28;;;;;;;55.90;1.90;;;;;;;;;;5053833;28;20526;-69
2023/10/21 10:44:56;;;;;;;56.67;2.10;;;;;;;;;;5053903;28;20452;-72
2023/10/21 10:47:24;;;;;;;55.70;1.93;;;;;;;;;;5054187;28;20846;-72
2023/10/21 10:49:59;;;;;;;55.73;2.17;;;;;;;;;;5053688;28;20882;-72
2023/10/21 10:52:27;;;;;;;55.83;1.83;;;;;;;;;;5053797;28;20800;-73
2023/10/21 10:54:54;;;;;;;56.00;2.10;;;;;;;;;;5053776;28;20455;-72
2023/10/21 10:57:22;;;;;;;56.07;2.10;;;;;;;;;;5053589;28;20455;-73
2023/10/21 10:59:50;;;;;;;55.97;1.90;;;;;;;;;;5053754;28;20828;-72
2023/10/21 11:02:17;;;;;;;56.20;2.10;;;;;;;;;;5053846;28;20484;-72
2023/10/21 11:04:48;;;;;;;55.90;2.00;;;;;;;;;;5053771;28;20442;-72
2023/10/21 11:07:16;;;;;;;56.10;2.10;;;;;;;;;;5053638;28;20485;-72
2023/10/21 11:09:43;;;;;;;56.00;1.90;;;;;;;;;;5053240;28;20523;-72
2023/10/21 11:12:10;;;;;;;56.40;1.90;;;;;;;;;;5053578;28;20816;-72
2023/10/21 11:14:38;;;;;;;55.77;1.63;;;;;;;;;;5051210;28;20456;-70
2023/10/21 11:17:05;;;;;;;55.93;2.00;;;;;;;;;;5051113;28;20514;-70
2023/10/21 11:19:32;;;;;;;56.07;2.10;;;;;;;;;;5053205;28;20486;-70
2023/10/21 11:22:07;;;;;;;55.90;1.90;;;;;;;;;;5053749;28;20475;-71
2023/10/21 11:24:35;;;;;;;56.00;1.90;;;;;;;;;;5052970;28;20474;-71
2023/10/21 11:27:04;;;;;;;55.67;2.00;;;;;;;;;;5047792;28;20507;-70
2023/10/21 11:29:31;;;;;;;56.07;2.30;;;;;;;;;;5052909;28;20503;-71
2023/10/21 11:31:59;;;;;;;55.83;1.93;;;;;;;;;;5053222;28;20447;-71
2023/10/21 11:34:26;;;;;;;55.97;2.00;;;;;;;;;;5053152;28;20456;-71
2023/10/21 11:36:53;;;;;;;56.60;2.90;;;;;;;;;;5045439;28;20460;-71
2023/10/21 11:39:22;;;;;;;55.90;1.90;;;;;;;;;;5053179;28;20471;-71
2023/10/21 11:41:49;;;;;;;55.97;2.23;;;;;;;;;;5051246;28;20455;-72
2023/10/21 11:44:17;;;;;;;55.87;2.00;;;;;;;;;;5052086;28;20458;-71
2023/10/21 11:46:44;;;;;;;55.77;2.00;;;;;;;;;;5052060;28;20449;-70
2023/10/21 11:49:14;;;;;;;55.77;1.90;;;;;;;;;;5052240;28;20489;-70
2023/10/21 11:51:42;;;;;;;55.87;1.90;;;;;;;;;;5052128;28;20500;-70
2023/10/21 11:54:19;;;;;;;55.90;1.90;;;;;;;;;;5052488;28;20448;-70
2023/10/21 11:56:57;;;;;;;56.20;1.90;;;;;;;;;;5052431;28;20447;-71
2023/10/21 12:03:20;;;;;;;56.00;2.20;;;;;;;;;;5052342;28;20510;-70
2023/10/21 12:06:08;;;;;;;56.10;2.20;;;;;;;;;;5052116;28;20618;-71
2023/10/21 12:17:11;;;;;;;55.67;1.70;;;;;;;;;;5047467;28;20545;-72
2023/10/21 12:28:33;;;;;;;55.87;1.90;;;;;;;;;;5044928;28;20439;-70
2023/10/21 12:36:34;;;;;;;55.87;1.90;;;;;;;;;;5051714;28;20442;-71
2023/10/21 12:39:20;;;;;;;56.20;2.10;;;;;;;;;;5051504;28;20467;-71
2023/10/21 12:41:52;;;;;;;55.77;1.80;;;;;;;;;;5051200;28;20439;-72
2023/10/21 12:44:23;;;;;;;56.07;1.90;;;;;;;;;;5051788;28;20462;-72
2023/10/21 12:46:57;;;;;;;55.67;1.90;;;;;;;;;;5051441;28;20482;-71
2023/10/21 12:49:27;;;;;;;56.07;2.10;;;;;;;;;;5051255;28;20577;-71
2023/10/21 12:51:55;;;;;;;56.20;2.00;;;;;;;;;;5043517;28;20462;-71
2023/10/21 12:54:22;;;;;;;55.70;1.93;;;;;;;;;;5051162;28;20956;-71
2023/10/21 12:56:50;;;;;;;56.20;2.00;;;;;;;;;;5051412;28;20440;-71
2023/10/21 12:59:19;;;;;;;55.83;2.00;;;;;;;;;;5051130;28;20519;-71
2023/10/21 13:01:46;;;;;;;55.77;2.00;;;;;;;;;;5050924;28;20486;-71
2023/10/21 13:04:15;;;;;;;56.07;2.30;;;;;;;;;;5051312;28;20436;-70
2023/10/21 13:06:42;;;;;;;55.90;1.97;;;;;;;;;;5051056;28;20440;-71
2023/10/21 13:09:23;;;;;;;55.90;1.90;;;;;;;;;;5051416;28;20900;-72
2023/10/21 13:11:50;;;;;;;56.10;1.77;;;;;;;;;;5051206;28;20452;-73
2023/10/21 13:14:18;;;;;;;55.77;1.90;;;;;;;;;;5051012;28;20459;-71
2023/10/21 13:16:45;;;;;;;55.87;1.70;;;;;;;;;;5051009;28;20473;-71
2023/10/21 13:19:13;;;;;;;55.87;1.80;;;;;;;;;;5050681;28;20517;-71
2023/10/21 13:21:41;;;;;;;55.83;1.70;;;;;;;;;;5051071;28;20872;-71
2023/10/21 13:24:09;;;;;;;56.00;1.80;;;;;;;;;;5050660;28;20543;-71
2023/10/21 13:26:37;;;;;;;55.67;1.80;;;;;;;;;;5051123;28;20535;-70
2023/10/21 13:29:04;;;;;;;55.90;1.90;;;;;;;;;;5047019;28;20499;-71
2023/10/21 13:31:33;;;;;;;55.87;1.90;;;;;;;;;;5048903;28;20449;-71
2023/10/21 13:34:02;;;;;;;55.90;1.80;;;;;;;;;;5043073;28;20480;-72
2023/10/21 13:36:29;;;;;;;56.10;1.90;;;;;;;;;;5028404;28;20464;-72
2023/10/21 13:39:00;;;;;;;55.77;1.90;;;;;;;;;;5030322;28;20464;-71
2023/10/21 13:41:27;;;;;;;55.83;2.20;;;;;;;;;;5046335;28;20485;-72
2023/10/21 13:43:54;;;;;;;56.17;1.80;;;;;;;;;;5041950;28;20498;-72
2023/10/21 13:46:22;;;;;;;55.87;1.80;;;;;;;;;;5049217;28;20538;-71
2023/10/21 13:48:51;;;;;;;55.80;1.83;;;;;;;;;;5050521;28;20469;-72
2023/10/21 13:51:18;;;;;;;55.87;1.80;;;;;;;;;;5042799;28;20479;-71
2023/10/21 13:53:45;;;;;;;55.73;1.90;;;;;;;;;;5049788;28;20942;-71
2023/10/21 13:56:14;;;;;;;55.73;1.90;;;;;;;;;;5051228;28;20800;-71
2023/10/21 13:58:41;;;;;;;55.80;2.10;;;;;;;;;;5052883;28;20447;-73
2023/10/21 14:01:12;;;;;;;55.87;2.07;;;;;;;;;;5064460;28;20536;-73
2023/10/21 14:03:40;;;;;;;55.87;1.90;;;;;;;;;;5062293;28;20448;-72
2023/10/21 14:06:07;;;;;;;56.00;1.90;;;;;;;;;;5066783;28;20472;-72
2023/10/21 14:08:35;;;;;;;55.77;2.20;;;;;;;;;;5065374;28;20465;-72
2023/10/21 14:11:06;;;;;;;56.00;2.10;;;;;;;;;;5065047;28;20559;-71
2023/10/21 14:13:34;;;;;;;55.57;1.90;;;;;;;;;;5064720;28;21308;-72
2023/10/21 14:16:05;;;;;;;55.90;2.10;;;;;;;;;;5067162;28;20455;-71
2023/10/21 14:18:32;;;;;;;56.10;2.20;;;;;;;;;;5067607;28;20451;-72
2023/10/21 14:20:59;;;;;;;56.00;2.00;;;;;;;;;;5065733;28;20457;-73
2023/10/21 14:23:27;;;;;;;55.90;1.90;;;;;;;;;;5064867;28;20445;-73
2023/10/21 14:25:55;;;;;;;55.97;2.03;;;;;;;;;;5065724;28;20457;-71
2023/10/21 14:28:25;;;;;;;55.93;1.90;;;;;;;;;;5071275;28;20475;-71
2023/10/21 14:30:54;;;;;;;55.90;1.90;;;;;;;;;;5066450;28;20519;-72
2023/10/21 14:33:22;;;;;;;56.00;1.90;;;;;;;;;;5066196;28;20503;-71
2023/10/21 14:35:50;;;;;;;56.07;2.20;;;;;;;;;;5070943;28;20516;-71
2023/10/21 14:38:18;;;;;;;56.10;2.00;;;;;;;;;;5070480;28;20478;-71
2023/10/21 14:40:45;;;;;;;55.67;1.80;;;;;;;;;;5070089;28;20774;-72
2023/10/21 14:43:13;;;;;;;56.00;1.90;;;;;;;;;;5068103;28;20466;-71
2023/10/21 14:45:42;;;;;;;56.07;2.30;;;;;;;;;;5067005;28;20465;-71
2023/10/21 14:48:11;;;;;;;56.07;1.90;;;;;;;;;;5071363;28;20514;-71
2023/10/21 14:50:39;;;;;;;55.90;2.00;;;;;;;;;;5074124;28;20483;-72
2023/10/21 14:53:08;;;;;;;55.97;1.93;;;;;;;;;;5074324;28;20452;-72
2023/10/21 14:55:35;;;;;;;56.13;1.97;;;;;;;;;;5074818;28;20490;-71
2023/10/21 14:58:02;;;;;;;55.77;2.00;;;;;;;;;;5072936;28;20552;-72
2023/10/21 15:00:29;;;;;;;55.83;1.90;;;;;;;;;;5073070;28;20478;-72
2023/10/21 15:02:56;;;;;;;55.80;1.83;;;;;;;;;;5073598;28;20931;-72
2023/10/21 15:05:25;;;;;;;56.00;1.80;;;;;;;;;;5074029;28;20455;-72